sensor_id;sensor_type;location;lat;lon;timestamp;temperature;humidity
7004;DHT22;3542;48.812;9.146;2023-05-16T00:00:23;11.10;99.90
7004;DHT22;3542;48.812;9.146;2023-05-16T00:02:52;11.00;99.90
7004;DHT22;3542;48.812;9.146;2023-05-16T00:05:18;11.00;99.90
7004;DHT22;3542;48.812;9.146;2023-05-16T00:07:45;11.00;99.90
7004;DHT22;3542;48.812;9.146;2023-05-16T00:10:11;11.00;99.90
7004;DHT22;3542;48.812;9.146;2023-05-16T00:12:37;11.00;99.90
7004;DHT22;3542;48.812;9.146;2023-05-16T00:15:05;11.00;99.90
7004;DHT22;3542;48.812;9.146;2023-05-16T00:17:33;11.10;99.90
7004;DHT22;3542;48.812;9.146;2023-05-16T00:19:59;11.10;99.90
7004;DHT22;3542;48.812;9.146;2023-05-16T00:22:33;11.10;99.90
7004;DHT22;3542;48.812;9.146;2023-05-16T00:24:58;11.10;99.90
7004;DHT22;3542;48.812;9.146;2023-05-16T00:27:24;11.10;99.90
7004;DHT22;3542;48.812;9.146;2023-05-16T00:29:49;11.10;99.90
7004;DHT22;3542;48.812;9.146;2023-05-16T00:32:16;11.30;99.90
7004;DHT22;3542;48.812;9.146;2023-05-16T00:34:42;11.30;99.90
7004;DHT22;3542;48.812;9.146;2023-05-16T00:37:07;11.40;99.90
7004;DHT22;3542;48.812;9.146;2023-05-16T00:39:33;11.40;99.90
7004;DHT22;3542;48.812;9.146;2023-05-16T00:41:58;11.40;99.90
7004;DHT22;3542;48.812;9.146;2023-05-16T00:44:24;11.50;99.90
7004;DHT22;3542;48.812;9.146;2023-05-16T00:46:49;11.50;99.90
7004;DHT22;3542;48.812;9.146;2023-05-16T00:49:15;11.50;99.90
7004;DHT22;3542;48.812;9.146;2023-05-16T00:51:41;11.50;99.90
7004;DHT22;3542;48.812;9.146;2023-05-16T00:54:06;11.50;99.90
7004;DHT22;3542;48.812;9.146;2023-05-16T00:56:32;11.40;99.90
7004;DHT22;3542;48.812;9.146;2023-05-16T00:58:58;11.40;99.90
7004;DHT22;3542;48.812;9.146;2023-05-16T02:32:01;10.90;99.90
7004;DHT22;3542;48.812;9.146;2023-05-16T02:34:26;10.90;99.90
7004;DHT22;3542;48.812;9.146;2023-05-16T02:36:54;10.90;99.90
7004;DHT22;3542;48.812;9.146;2023-05-16T02:39:19;10.90;99.90
7004;DHT22;3542;48.812;9.146;2023-05-16T02:41:45;10.90;99.90
7004;DHT22;3542;48.812;9.146;2023-05-16T02:44:10;10.90;99.90
7004;DHT22;3542;48.812;9.146;2023-05-16T02:46:36;10.80;99.90
7004;DHT22;3542;48.812;9.146;2023-05-16T02:49:01;10.80;99.90
7004;DHT22;3542;48.812;9.146;2023-05-16T02:51:28;10.80;99.90
7004;DHT22;3542;48.812;9.146;2023-05-16T02:53:54;10.80;99.90
7004;DHT22;3542;48.812;9.146;2023-05-16T02:56:21;10.80;99.90
7004;DHT22;3542;48.812;9.146;2023-05-16T02:58:48;10.80;99.90
7004;DHT22;3542;48.812;9.146;2023-05-16T03:01:15;10.80;99.90
7004;DHT22;3542;48.812;9.146;2023-05-16T03:03:41;10.80;99.90
7004;DHT22;3542;48.812;9.146;2023-05-16T03:06:06;10.80;99.90
7004;DHT22;3542;48.812;9.146;2023-05-16T03:08:33;10.80;99.90
7004;DHT22;3542;48.812;9.146;2023-05-16T03:10:59;10.80;99.90
7004;DHT22;3542;48.812;9.146;2023-05-16T03:13:24;10.80;99.90
7004;DHT22;3542;48.812;9.146;2023-05-16T03:15:50;10.80;99.90
7004;DHT22;3542;48.812;9.146;2023-05-16T03:18:15;10.80;99.90
7004;DHT22;3542;48.812;9.146;2023-05-16T03:20:41;10.80;99.90
7004;DHT22;3542;48.812;9.146;2023-05-16T03:23:06;10.80;99.90
7004;DHT22;3542;48.812;9.146;2023-05-16T03:25:35;10.70;99.90
7004;DHT22;3542;48.812;9.146;2023-05-16T03:28:02;10.70;99.90
7004;DHT22;3542;48.812;9.146;2023-05-16T03:30:27;10.80;99.90
7004;DHT22;3542;48.812;9.146;2023-05-16T03:32:54;10.70;99.90
7004;DHT22;3542;48.812;9.146;2023-05-16T03:35:19;10.70;99.90
7004;DHT22;3542;48.812;9.146;2023-05-16T03:37:45;10.80;99.90
7004;DHT22;3542;48.812;9.146;2023-05-16T03:40:11;10.80;99.90
7004;DHT22;3542;48.812;9.146;2023-05-16T03:42:37;10.80;99.90
7004;DHT22;3542;48.812;9.146;2023-05-16T03:45:04;10.80;99.90
7004;DHT22;3542;48.812;9.146;2023-05-16T03:47:30;10.80;99.90
7004;DHT22;3542;48.812;9.146;2023-05-16T03:49:56;10.80;99.90
7004;DHT22;3542;48.812;9.146;2023-05-16T03:52:22;10.80;99.90
7004;DHT22;3542;48.812;9.146;2023-05-16T03:54:47;10.90;99.90
7004;DHT22;3542;48.812;9.146;2023-05-16T03:57:13;10.90;99.90
7004;DHT22;3542;48.812;9.146;2023-05-16T03:59:39;10.90;99.90
7004;DHT22;3542;48.812;9.146;2023-05-16T04:02:06;10.90;99.90
7004;DHT22;3542;48.812;9.146;2023-05-16T04:04:32;11.00;99.90
7004;DHT22;3542;48.812;9.146;2023-05-16T04:06:57;11.00;99.90
7004;DHT22;3542;48.812;9.146;2023-05-16T04:09:23;11.10;99.90
7004;DHT22;3542;48.812;9.146;2023-05-16T04:11:48;11.10;99.90
7004;DHT22;3542;48.812;9.146;2023-05-16T04:14:14;11.10;99.90
7004;DHT22;3542;48.812;9.146;2023-05-16T04:16:40;11.20;99.90
7004;DHT22;3542;48.812;9.146;2023-05-16T04:19:06;11.20;99.90
7004;DHT22;3542;48.812;9.146;2023-05-16T04:21:32;11.20;99.90
7004;DHT22;3542;48.812;9.146;2023-05-16T04:24:01;11.30;99.90
7004;DHT22;3542;48.812;9.146;2023-05-16T04:26:26;11.30;99.90
7004;DHT22;3542;48.812;9.146;2023-05-16T04:28:52;11.40;99.90
7004;DHT22;3542;48.812;9.146;2023-05-16T04:31:18;11.40;99.90
7004;DHT22;3542;48.812;9.146;2023-05-16T04:33:43;11.40;99.90
7004;DHT22;3542;48.812;9.146;2023-05-16T04:36:09;11.50;99.90
7004;DHT22;3542;48.812;9.146;2023-05-16T04:38:34;11.60;99.90
7004;DHT22;3542;48.812;9.146;2023-05-16T04:41:00;11.60;99.90
7004;DHT22;3542;48.812;9.146;2023-05-16T04:43:27;11.60;99.90
7004;DHT22;3542;48.812;9.146;2023-05-16T04:45:52;11.70;99.90
7004;DHT22;3542;48.812;9.146;2023-05-16T04:48:18;11.70;99.90
7004;DHT22;3542;48.812;9.146;2023-05-16T04:50:44;11.70;99.90
7004;DHT22;3542;48.812;9.146;2023-05-16T04:53:09;11.70;99.90
7004;DHT22;3542;48.812;9.146;2023-05-16T04:55:35;11.70;99.90
7004;DHT22;3542;48.812;9.146;2023-05-16T04:58:01;11.70;99.90
7004;DHT22;3542;48.812;9.146;2023-05-16T05:00:26;11.80;99.90
7004;DHT22;3542;48.812;9.146;2023-05-16T05:02:52;11.80;99.90
7004;DHT22;3542;48.812;9.146;2023-05-16T05:05:18;11.90;99.90
7004;DHT22;3542;48.812;9.146;2023-05-16T05:07:43;11.80;99.90
7004;DHT22;3542;48.812;9.146;2023-05-16T05:10:09;11.90;99.90
7004;DHT22;3542;48.812;9.146;2023-05-16T05:12:36;11.90;99.90
7004;DHT22;3542;48.812;9.146;2023-05-16T05:15:01;11.90;99.90
7004;DHT22;3542;48.812;9.146;2023-05-16T05:17:27;11.90;99.90
7004;DHT22;3542;48.812;9.146;2023-05-16T05:19:53;12.00;99.90
7004;DHT22;3542;48.812;9.146;2023-05-16T05:22:19;12.00;99.90
7004;DHT22;3542;48.812;9.146;2023-05-16T05:24:45;12.00;99.90
7004;DHT22;3542;48.812;9.146;2023-05-16T05:27:13;12.00;99.90
7004;DHT22;3542;48.812;9.146;2023-05-16T05:29:39;12.00;99.90
7004;DHT22;3542;48.812;9.146;2023-05-16T05:32:05;12.00;99.90
7004;DHT22;3542;48.812;9.146;2023-05-16T05:34:34;12.00;99.90
7004;DHT22;3542;48.812;9.146;2023-05-16T05:36:59;12.00;99.90
7004;DHT22;3542;48.812;9.146;2023-05-16T05:39:25;12.10;99.90
7004;DHT22;3542;48.812;9.146;2023-05-16T05:41:53;12.10;99.90
7004;DHT22;3542;48.812;9.146;2023-05-16T05:44:19;12.10;99.90
7004;DHT22;3542;48.812;9.146;2023-05-16T05:46:45;12.10;99.90
7004;DHT22;3542;48.812;9.146;2023-05-16T05:49:11;12.10;99.90
7004;DHT22;3542;48.812;9.146;2023-05-16T05:51:36;12.10;99.90
7004;DHT22;3542;48.812;9.146;2023-05-16T05:54:02;12.20;99.90
7004;DHT22;3542;48.812;9.146;2023-05-16T05:56:28;12.20;99.90
7004;DHT22;3542;48.812;9.146;2023-05-16T05:58:53;12.20;99.90
7004;DHT22;3542;48.812;9.146;2023-05-16T06:01:19;12.20;99.90
7004;DHT22;3542;48.812;9.146;2023-05-16T06:03:47;12.20;99.90
7004;DHT22;3542;48.812;9.146;2023-05-16T06:06:13;12.30;99.90
7004;DHT22;3542;48.812;9.146;2023-05-16T06:08:39;12.30;99.90
7004;DHT22;3542;48.812;9.146;2023-05-16T06:11:05;12.30;99.90
7004;DHT22;3542;48.812;9.146;2023-05-16T06:13:31;12.40;99.90
7004;DHT22;3542;48.812;9.146;2023-05-16T06:15:56;12.40;99.90
7004;DHT22;3542;48.812;9.146;2023-05-16T06:18:22;12.40;99.90
7004;DHT22;3542;48.812;9.146;2023-05-16T06:20:47;12.40;99.90
7004;DHT22;3542;48.812;9.146;2023-05-16T06:23:13;12.40;99.90
7004;DHT22;3542;48.812;9.146;2023-05-16T06:25:38;12.50;99.90
7004;DHT22;3542;48.812;9.146;2023-05-16T06:28:04;12.50;99.90
7004;DHT22;3542;48.812;9.146;2023-05-16T06:30:29;12.60;99.90
7004;DHT22;3542;48.812;9.146;2023-05-16T06:32:55;12.70;99.90
7004;DHT22;3542;48.812;9.146;2023-05-16T06:35:20;12.70;99.90
7004;DHT22;3542;48.812;9.146;2023-05-16T06:37:46;12.70;99.90
7004;DHT22;3542;48.812;9.146;2023-05-16T06:40:11;12.70;99.90
7004;DHT22;3542;48.812;9.146;2023-05-16T06:42:37;12.80;99.90
7004;DHT22;3542;48.812;9.146;2023-05-16T06:45:04;12.70;99.90
7004;DHT22;3542;48.812;9.146;2023-05-16T06:47:30;12.70;99.90
7004;DHT22;3542;48.812;9.146;2023-05-16T06:49:56;12.70;99.90
7004;DHT22;3542;48.812;9.146;2023-05-16T06:52:21;12.60;99.90
7004;DHT22;3542;48.812;9.146;2023-05-16T06:54:47;12.70;99.90
7004;DHT22;3542;48.812;9.146;2023-05-16T06:57:12;12.80;99.90
7004;DHT22;3542;48.812;9.146;2023-05-16T06:59:38;12.80;99.90
7004;DHT22;3542;48.812;9.146;2023-05-16T07:02:04;12.70;99.90
7004;DHT22;3542;48.812;9.146;2023-05-16T07:04:30;12.70;99.90
7004;DHT22;3542;48.812;9.146;2023-05-16T07:06:55;12.60;99.90
7004;DHT22;3542;48.812;9.146;2023-05-16T07:09:21;12.60;99.90
7004;DHT22;3542;48.812;9.146;2023-05-16T07:11:46;12.60;99.90
7004;DHT22;3542;48.812;9.146;2023-05-16T07:14:12;12.70;99.90
7004;DHT22;3542;48.812;9.146;2023-05-16T07:16:37;12.70;99.90
7004;DHT22;3542;48.812;9.146;2023-05-16T07:19:03;12.60;99.90
7004;DHT22;3542;48.812;9.146;2023-05-16T07:21:28;12.60;99.90
7004;DHT22;3542;48.812;9.146;2023-05-16T07:23:54;12.70;99.90
7004;DHT22;3542;48.812;9.146;2023-05-16T07:26:20;12.70;99.90
7004;DHT22;3542;48.812;9.146;2023-05-16T07:28:48;12.70;99.90
7004;DHT22;3542;48.812;9.146;2023-05-16T07:31:14;12.60;99.90
7004;DHT22;3542;48.812;9.146;2023-05-16T07:33:40;12.60;99.90
7004;DHT22;3542;48.812;9.146;2023-05-16T07:36:06;12.60;99.90
7004;DHT22;3542;48.812;9.146;2023-05-16T07:38:32;12.70;99.90
7004;DHT22;3542;48.812;9.146;2023-05-16T07:40:58;12.90;99.90
7004;DHT22;3542;48.812;9.146;2023-05-16T07:43:23;13.10;99.90
7004;DHT22;3542;48.812;9.146;2023-05-16T07:45:49;13.10;99.90
7004;DHT22;3542;48.812;9.146;2023-05-16T07:48:14;13.20;99.90
7004;DHT22;3542;48.812;9.146;2023-05-16T07:50:41;13.20;99.90
7004;DHT22;3542;48.812;9.146;2023-05-16T07:53:07;13.10;99.90
7004;DHT22;3542;48.812;9.146;2023-05-16T07:55:32;13.00;99.90
7004;DHT22;3542;48.812;9.146;2023-05-16T07:57:58;13.00;99.90
7004;DHT22;3542;48.812;9.146;2023-05-16T08:00:23;13.10;99.90
7004;DHT22;3542;48.812;9.146;2023-05-16T08:02:49;13.10;99.90
7004;DHT22;3542;48.812;9.146;2023-05-16T08:05:15;13.20;99.90
7004;DHT22;3542;48.812;9.146;2023-05-16T08:07:40;13.20;99.90
7004;DHT22;3542;48.812;9.146;2023-05-16T08:10:06;13.20;99.90
7004;DHT22;3542;48.812;9.146;2023-05-16T08:12:32;13.10;99.90
7004;DHT22;3542;48.812;9.146;2023-05-16T08:14:57;13.00;99.90
7004;DHT22;3542;48.812;9.146;2023-05-16T08:17:23;13.00;99.90
7004;DHT22;3542;48.812;9.146;2023-05-16T08:19:48;13.00;99.90
7004;DHT22;3542;48.812;9.146;2023-05-16T08:22:14;13.00;99.90
7004;DHT22;3542;48.812;9.146;2023-05-16T08:24:39;13.00;99.90
7004;DHT22;3542;48.812;9.146;2023-05-16T08:27:05;12.90;99.90
7004;DHT22;3542;48.812;9.146;2023-05-16T08:29:33;12.90;99.90
7004;DHT22;3542;48.812;9.146;2023-05-16T08:31:59;12.80;99.90
7004;DHT22;3542;48.812;9.146;2023-05-16T08:34:25;12.80;99.90
7004;DHT22;3542;48.812;9.146;2023-05-16T08:36:53;12.70;99.90
7004;DHT22;3542;48.812;9.146;2023-05-16T08:39:19;12.70;99.90
7004;DHT22;3542;48.812;9.146;2023-05-16T08:41:44;12.70;99.90
7004;DHT22;3542;48.812;9.146;2023-05-16T08:44:13;12.70;99.90
7004;DHT22;3542;48.812;9.146;2023-05-16T08:46:50;12.70;99.90
7004;DHT22;3542;48.812;9.146;2023-05-16T08:49:16;12.70;99.90
7004;DHT22;3542;48.812;9.146;2023-05-16T08:51:42;12.70;99.90
7004;DHT22;3542;48.812;9.146;2023-05-16T08:54:11;12.70;99.90
7004;DHT22;3542;48.812;9.146;2023-05-16T08:56:37;12.70;99.90
7004;DHT22;3542;48.812;9.146;2023-05-16T08:59:03;12.70;99.90
7004;DHT22;3542;48.812;9.146;2023-05-16T09:01:29;12.80;99.90
7004;DHT22;3542;48.812;9.146;2023-05-16T09:03:57;12.70;99.90
7004;DHT22;3542;48.812;9.146;2023-05-16T09:06:22;12.70;99.90
7004;DHT22;3542;48.812;9.146;2023-05-16T09:08:49;12.70;99.90
7004;DHT22;3542;48.812;9.146;2023-05-16T09:11:15;12.80;99.90
7004;DHT22;3542;48.812;9.146;2023-05-16T09:13:41;12.80;99.90
7004;DHT22;3542;48.812;9.146;2023-05-16T09:16:14;12.80;99.90
7004;DHT22;3542;48.812;9.146;2023-05-16T09:18:42;12.80;99.90
7004;DHT22;3542;48.812;9.146;2023-05-16T09:21:09;13.00;99.90
7004;DHT22;3542;48.812;9.146;2023-05-16T09:23:36;13.20;99.90
7004;DHT22;3542;48.812;9.146;2023-05-16T09:26:03;13.30;99.90
7004;DHT22;3542;48.812;9.146;2023-05-16T09:28:29;13.40;99.90
7004;DHT22;3542;48.812;9.146;2023-05-16T09:30:55;13.60;99.90
7004;DHT22;3542;48.812;9.146;2023-05-16T09:33:26;13.70;99.90
7004;DHT22;3542;48.812;9.146;2023-05-16T09:35:59;13.80;99.90
7004;DHT22;3542;48.812;9.146;2023-05-16T09:38:26;13.70;99.90
7004;DHT22;3542;48.812;9.146;2023-05-16T09:40:53;13.60;99.90
7004;DHT22;3542;48.812;9.146;2023-05-16T09:43:25;13.50;99.90
7004;DHT22;3542;48.812;9.146;2023-05-16T09:45:51;13.50;99.90
7004;DHT22;3542;48.812;9.146;2023-05-16T09:48:17;13.50;99.90
7004;DHT22;3542;48.812;9.146;2023-05-16T09:50:49;13.60;99.90
7004;DHT22;3542;48.812;9.146;2023-05-16T09:53:17;13.70;99.90
7004;DHT22;3542;48.812;9.146;2023-05-16T09:55:43;14.00;99.90
7004;DHT22;3542;48.812;9.146;2023-05-16T09:58:08;14.10;99.90
7004;DHT22;3542;48.812;9.146;2023-05-16T10:00:34;14.30;99.90
7004;DHT22;3542;48.812;9.146;2023-05-16T10:03:01;14.60;99.90
7004;DHT22;3542;48.812;9.146;2023-05-16T10:05:27;14.80;99.90
7004;DHT22;3542;48.812;9.146;2023-05-16T10:07:55;14.80;99.90
7004;DHT22;3542;48.812;9.146;2023-05-16T10:10:21;14.70;99.90
7004;DHT22;3542;48.812;9.146;2023-05-16T10:12:47;14.80;99.90
7004;DHT22;3542;48.812;9.146;2023-05-16T10:15:15;14.80;99.90
7004;DHT22;3542;48.812;9.146;2023-05-16T10:17:42;14.80;99.90
7004;DHT22;3542;48.812;9.146;2023-05-16T10:20:10;14.70;99.90
7004;DHT22;3542;48.812;9.146;2023-05-16T10:22:43;14.70;99.90
7004;DHT22;3542;48.812;9.146;2023-05-16T10:25:33;14.80;99.90
7004;DHT22;3542;48.812;9.146;2023-05-16T10:28:01;14.80;99.90
7004;DHT22;3542;48.812;9.146;2023-05-16T10:30:29;15.10;99.90
7004;DHT22;3542;48.812;9.146;2023-05-16T10:32:55;15.20;99.90
7004;DHT22;3542;48.812;9.146;2023-05-16T10:35:22;15.10;99.90
7004;DHT22;3542;48.812;9.146;2023-05-16T10:37:51;14.70;99.90
7004;DHT22;3542;48.812;9.146;2023-05-16T10:40:17;14.50;99.90
7004;DHT22;3542;48.812;9.146;2023-05-16T10:42:59;14.30;99.90
7004;DHT22;3542;48.812;9.146;2023-05-16T10:45:25;14.20;99.90
7004;DHT22;3542;48.812;9.146;2023-05-16T10:48:03;14.10;99.90
7004;DHT22;3542;48.812;9.146;2023-05-16T10:53:18;13.50;99.90
7004;DHT22;3542;48.812;9.146;2023-05-16T10:55:48;13.30;99.90
7004;DHT22;3542;48.812;9.146;2023-05-16T11:06:31;13.00;99.90
7004;DHT22;3542;48.812;9.146;2023-05-16T11:14:06;12.90;99.90
7004;DHT22;3542;48.812;9.146;2023-05-16T11:16:33;12.90;99.90
7004;DHT22;3542;48.812;9.146;2023-05-16T11:19:06;12.70;99.90
7004;DHT22;3542;48.812;9.146;2023-05-16T11:22:03;12.70;99.90
7004;DHT22;3542;48.812;9.146;2023-05-16T11:24:37;12.50;99.90
7004;DHT22;3542;48.812;9.146;2023-05-16T11:27:04;12.60;99.90
7004;DHT22;3542;48.812;9.146;2023-05-16T11:29:35;12.60;99.90
7004;DHT22;3542;48.812;9.146;2023-05-16T11:32:03;12.60;99.90
7004;DHT22;3542;48.812;9.146;2023-05-16T11:34:30;12.50;99.90
7004;DHT22;3542;48.812;9.146;2023-05-16T11:36:55;12.50;99.90
7004;DHT22;3542;48.812;9.146;2023-05-16T11:39:21;12.60;99.90
7004;DHT22;3542;48.812;9.146;2023-05-16T11:41:52;12.60;99.90
7004;DHT22;3542;48.812;9.146;2023-05-16T11:44:17;12.60;99.90
7004;DHT22;3542;48.812;9.146;2023-05-16T11:46:43;12.50;99.90
7004;DHT22;3542;48.812;9.146;2023-05-16T11:49:08;12.50;99.90
7004;DHT22;3542;48.812;9.146;2023-05-16T11:51:37;12.60;99.90
7004;DHT22;3542;48.812;9.146;2023-05-16T11:54:03;12.60;99.90
7004;DHT22;3542;48.812;9.146;2023-05-16T11:56:34;12.60;99.90
7004;DHT22;3542;48.812;9.146;2023-05-16T11:59:01;12.60;99.90
7004;DHT22;3542;48.812;9.146;2023-05-16T12:01:38;12.60;99.90
7004;DHT22;3542;48.812;9.146;2023-05-16T12:04:14;12.70;99.90
7004;DHT22;3542;48.812;9.146;2023-05-16T12:06:43;12.60;99.90
7004;DHT22;3542;48.812;9.146;2023-05-16T12:09:13;12.70;99.90
7004;DHT22;3542;48.812;9.146;2023-05-16T12:11:40;12.70;99.90
7004;DHT22;3542;48.812;9.146;2023-05-16T12:14:08;12.80;99.90
7004;DHT22;3542;48.812;9.146;2023-05-16T12:16:34;12.80;99.90
7004;DHT22;3542;48.812;9.146;2023-05-16T12:19:04;12.80;99.90
7004;DHT22;3542;48.812;9.146;2023-05-16T12:21:31;12.90;99.90
7004;DHT22;3542;48.812;9.146;2023-05-16T12:23:57;12.90;99.90
7004;DHT22;3542;48.812;9.146;2023-05-16T12:26:27;13.10;99.90
7004;DHT22;3542;48.812;9.146;2023-05-16T12:28:56;13.20;99.90
7004;DHT22;3542;48.812;9.146;2023-05-16T12:31:28;13.30;99.90
7004;DHT22;3542;48.812;9.146;2023-05-16T12:33:57;13.40;99.90
7004;DHT22;3542;48.812;9.146;2023-05-16T12:36:24;13.50;99.90
7004;DHT22;3542;48.812;9.146;2023-05-16T12:38:51;13.60;99.90
7004;DHT22;3542;48.812;9.146;2023-05-16T12:41:21;13.70;99.90
7004;DHT22;3542;48.812;9.146;2023-05-16T12:43:50;13.70;99.90
7004;DHT22;3542;48.812;9.146;2023-05-16T12:46:18;13.70;99.90
7004;DHT22;3542;48.812;9.146;2023-05-16T12:48:43;13.70;99.90
7004;DHT22;3542;48.812;9.146;2023-05-16T12:51:12;13.50;99.90
7004;DHT22;3542;48.812;9.146;2023-05-16T12:53:48;13.50;99.90
7004;DHT22;3542;48.812;9.146;2023-05-16T12:56:14;13.40;99.90
7004;DHT22;3542;48.812;9.146;2023-05-16T12:58:40;13.30;99.90
7004;DHT22;3542;48.812;9.146;2023-05-16T13:01:06;13.20;99.90
7004;DHT22;3542;48.812;9.146;2023-05-16T13:03:33;13.30;99.90
7004;DHT22;3542;48.812;9.146;2023-05-16T13:05:59;13.30;99.90
7004;DHT22;3542;48.812;9.146;2023-05-16T13:08:26;13.30;99.90
7004;DHT22;3542;48.812;9.146;2023-05-16T13:10:51;13.20;99.90
7004;DHT22;3542;48.812;9.146;2023-05-16T13:13:17;13.10;99.90
7004;DHT22;3542;48.812;9.146;2023-05-16T13:15:45;13.10;99.90
7004;DHT22;3542;48.812;9.146;2023-05-16T13:18:12;13.10;99.90
7004;DHT22;3542;48.812;9.146;2023-05-16T13:20:38;13.00;99.90
7004;DHT22;3542;48.812;9.146;2023-05-16T13:23:03;13.10;99.90
7004;DHT22;3542;48.812;9.146;2023-05-16T13:25:30;13.10;99.90
7004;DHT22;3542;48.812;9.146;2023-05-16T13:27:55;12.90;99.90
7004;DHT22;3542;48.812;9.146;2023-05-16T13:30:21;12.80;99.90
7004;DHT22;3542;48.812;9.146;2023-05-16T13:32:46;12.80;99.90
7004;DHT22;3542;48.812;9.146;2023-05-16T13:35:13;12.80;99.90
7004;DHT22;3542;48.812;9.146;2023-05-16T13:37:38;12.80;99.90
7004;DHT22;3542;48.812;9.146;2023-05-16T13:40:06;12.70;99.90
7004;DHT22;3542;48.812;9.146;2023-05-16T13:42:35;12.70;99.90
7004;DHT22;3542;48.812;9.146;2023-05-16T13:45:05;12.70;99.90
7004;DHT22;3542;48.812;9.146;2023-05-16T13:47:31;12.70;99.90
7004;DHT22;3542;48.812;9.146;2023-05-16T13:49:59;12.70;99.90
7004;DHT22;3542;48.812;9.146;2023-05-16T13:52:33;12.80;99.90
7004;DHT22;3542;48.812;9.146;2023-05-16T13:54:59;12.80;99.90
7004;DHT22;3542;48.812;9.146;2023-05-16T13:57:24;12.80;99.90
7004;DHT22;3542;48.812;9.146;2023-05-16T13:59:51;12.80;99.90
7004;DHT22;3542;48.812;9.146;2023-05-16T14:02:17;12.60;99.90
7004;DHT22;3542;48.812;9.146;2023-05-16T14:04:42;12.60;99.90
7004;DHT22;3542;48.812;9.146;2023-05-16T14:07:08;12.50;99.90
7004;DHT22;3542;48.812;9.146;2023-05-16T14:09:33;12.60;99.90
7004;DHT22;3542;48.812;9.146;2023-05-16T14:12:01;12.70;99.90
7004;DHT22;3542;48.812;9.146;2023-05-16T14:14:33;12.70;99.90
7004;DHT22;3542;48.812;9.146;2023-05-16T14:16:59;12.80;99.90
7004;DHT22;3542;48.812;9.146;2023-05-16T14:19:24;12.90;99.90
7004;DHT22;3542;48.812;9.146;2023-05-16T14:21:50;13.00;99.90
7004;DHT22;3542;48.812;9.146;2023-05-16T14:24:15;13.10;99.90
7004;DHT22;3542;48.812;9.146;2023-05-16T14:26:41;13.00;99.90
7004;DHT22;3542;48.812;9.146;2023-05-16T14:29:06;13.00;99.90
7004;DHT22;3542;48.812;9.146;2023-05-16T14:31:32;13.00;99.90
7004;DHT22;3542;48.812;9.146;2023-05-16T14:33:58;13.00;99.90
7004;DHT22;3542;48.812;9.146;2023-05-16T14:36:24;13.10;99.90
7004;DHT22;3542;48.812;9.146;2023-05-16T14:38:49;13.00;99.90
7004;DHT22;3542;48.812;9.146;2023-05-16T14:41:15;13.10;99.90
7004;DHT22;3542;48.812;9.146;2023-05-16T14:43:41;13.20;99.90
7004;DHT22;3542;48.812;9.146;2023-05-16T14:46:06;13.30;99.90
7004;DHT22;3542;48.812;9.146;2023-05-16T14:48:32;13.40;99.90
7004;DHT22;3542;48.812;9.146;2023-05-16T14:50:58;13.40;99.90
7004;DHT22;3542;48.812;9.146;2023-05-16T14:53:23;13.40;99.90
7004;DHT22;3542;48.812;9.146;2023-05-16T14:55:49;13.40;99.90
7004;DHT22;3542;48.812;9.146;2023-05-16T14:58:14;13.40;99.90
7004;DHT22;3542;48.812;9.146;2023-05-16T15:00:40;13.40;99.90
7004;DHT22;3542;48.812;9.146;2023-05-16T15:03:06;13.40;99.90
7004;DHT22;3542;48.812;9.146;2023-05-16T15:05:31;13.40;99.90
7004;DHT22;3542;48.812;9.146;2023-05-16T15:07:57;13.40;99.90
7004;DHT22;3542;48.812;9.146;2023-05-16T15:10:26;13.40;99.90
7004;DHT22;3542;48.812;9.146;2023-05-16T15:12:52;13.40;99.90
7004;DHT22;3542;48.812;9.146;2023-05-16T15:15:17;13.40;99.90
7004;DHT22;3542;48.812;9.146;2023-05-16T15:17:43;13.50;99.90
7004;DHT22;3542;48.812;9.146;2023-05-16T15:20:09;13.60;99.90
7004;DHT22;3542;48.812;9.146;2023-05-16T15:22:36;13.60;99.90
7004;DHT22;3542;48.812;9.146;2023-05-16T15:25:06;13.70;99.90
7004;DHT22;3542;48.812;9.146;2023-05-16T15:27:32;13.70;99.90
7004;DHT22;3542;48.812;9.146;2023-05-16T15:29:58;13.60;99.90
7004;DHT22;3542;48.812;9.146;2023-05-16T15:32:23;13.60;99.90
7004;DHT22;3542;48.812;9.146;2023-05-16T15:34:49;13.60;99.90
7004;DHT22;3542;48.812;9.146;2023-05-16T15:37:14;13.70;99.90
7004;DHT22;3542;48.812;9.146;2023-05-16T15:39:40;13.60;99.90
7004;DHT22;3542;48.812;9.146;2023-05-16T15:42:08;13.60;99.90
7004;DHT22;3542;48.812;9.146;2023-05-16T15:44:33;13.60;99.90
7004;DHT22;3542;48.812;9.146;2023-05-16T15:47:02;13.70;99.90
7004;DHT22;3542;48.812;9.146;2023-05-16T15:49:28;13.80;99.90
7004;DHT22;3542;48.812;9.146;2023-05-16T15:51:53;13.90;99.90
7004;DHT22;3542;48.812;9.146;2023-05-16T15:54:19;13.90;99.90
7004;DHT22;3542;48.812;9.146;2023-05-16T15:56:45;13.90;99.90
7004;DHT22;3542;48.812;9.146;2023-05-16T15:59:10;13.80;99.90
7004;DHT22;3542;48.812;9.146;2023-05-16T16:01:36;13.70;99.90
7004;DHT22;3542;48.812;9.146;2023-05-16T16:04:02;13.60;99.90
7004;DHT22;3542;48.812;9.146;2023-05-16T16:06:27;13.50;99.90
7004;DHT22;3542;48.812;9.146;2023-05-16T16:08:53;13.50;99.90
7004;DHT22;3542;48.812;9.146;2023-05-16T16:11:21;13.40;99.90
7004;DHT22;3542;48.812;9.146;2023-05-16T16:13:47;13.40;99.90
7004;DHT22;3542;48.812;9.146;2023-05-16T16:16:14;13.30;99.90
7004;DHT22;3542;48.812;9.146;2023-05-16T16:18:40;13.40;99.90
7004;DHT22;3542;48.812;9.146;2023-05-16T16:21:07;13.20;99.90
7004;DHT22;3542;48.812;9.146;2023-05-16T16:23:34;13.30;99.90
7004;DHT22;3542;48.812;9.146;2023-05-16T16:25:59;13.10;99.90
7004;DHT22;3542;48.812;9.146;2023-05-16T16:28:25;13.20;99.90
7004;DHT22;3542;48.812;9.146;2023-05-16T16:30:51;13.20;99.90
7004;DHT22;3542;48.812;9.146;2023-05-16T16:33:16;13.20;99.90
7004;DHT22;3542;48.812;9.146;2023-05-16T16:35:42;13.20;99.90
7004;DHT22;3542;48.812;9.146;2023-05-16T16:38:08;13.30;99.90
7004;DHT22;3542;48.812;9.146;2023-05-16T16:40:33;13.40;99.90
7004;DHT22;3542;48.812;9.146;2023-05-16T16:42:59;13.40;99.90
7004;DHT22;3542;48.812;9.146;2023-05-16T16:45:25;13.40;99.90
7004;DHT22;3542;48.812;9.146;2023-05-16T16:47:51;13.50;99.90
7004;DHT22;3542;48.812;9.146;2023-05-16T16:50:16;13.50;99.90
7004;DHT22;3542;48.812;9.146;2023-05-16T16:52:42;13.50;99.90
7004;DHT22;3542;48.812;9.146;2023-05-16T16:55:08;13.50;99.90
7004;DHT22;3542;48.812;9.146;2023-05-16T16:57:33;13.60;99.90
7004;DHT22;3542;48.812;9.146;2023-05-16T16:59:59;13.60;99.90
7004;DHT22;3542;48.812;9.146;2023-05-16T17:02:25;13.60;99.90
7004;DHT22;3542;48.812;9.146;2023-05-16T17:04:51;13.50;99.90
7004;DHT22;3542;48.812;9.146;2023-05-16T17:07:18;13.50;99.90
7004;DHT22;3542;48.812;9.146;2023-05-16T17:09:43;13.50;99.90
7004;DHT22;3542;48.812;9.146;2023-05-16T17:12:09;13.50;99.90
7004;DHT22;3542;48.812;9.146;2023-05-16T17:14:46;13.40;99.90
7004;DHT22;3542;48.812;9.146;2023-05-16T17:17:16;13.40;99.90
7004;DHT22;3542;48.812;9.146;2023-05-16T17:19:44;13.40;99.90
7004;DHT22;3542;48.812;9.146;2023-05-16T17:22:10;13.40;99.90
7004;DHT22;3542;48.812;9.146;2023-05-16T17:24:38;13.30;99.90
7004;DHT22;3542;48.812;9.146;2023-05-16T17:27:04;13.30;99.90
7004;DHT22;3542;48.812;9.146;2023-05-16T17:29:30;13.40;99.90
7004;DHT22;3542;48.812;9.146;2023-05-16T17:31:58;13.30;99.90
7004;DHT22;3542;48.812;9.146;2023-05-16T17:34:24;13.30;99.90
7004;DHT22;3542;48.812;9.146;2023-05-16T17:36:50;13.30;99.90
7004;DHT22;3542;48.812;9.146;2023-05-16T17:39:18;13.40;99.90
7004;DHT22;3542;48.812;9.146;2023-05-16T17:41:45;13.40;99.90
7004;DHT22;3542;48.812;9.146;2023-05-16T17:44:11;13.40;99.90